Timeline UpdatesTrip UpdatesNews PostsPvt Posts♥♥Travel TipsAdmin PostsConv PostsFollowed PostsChat RequestsBlog PostsPNR Posts

Disclaimer
Search
 
 
Sun Nov 23, 2014 06:35:59 ISTHomeTrainsΣChainsAtlasPNRForumGalleryNewsFAQTripsMembersLoginFeedback
No Recent News for this Train
Other Trains in the News **new
Latest...
Rail Budget 2011-12 The run of the following trains will be extended Hubli- Bijapur Passenger to Solapur (56906/56905)
Tue Mar 01, 2011 (08:28PM)
⇐ Return Journey: Train# 56906

56905/Solapur-Hubli Passenger (UnReserved)

Time-Table HAS CHANGED.
Oct 16 2014 (10:40PM)
Change Departure Station:
Change Arrival Station:
Post a Train Travel TipPost a Train Travel Tip **new
Post a Comment/Question/Picture/VideoPost a Comment/Question/Picture/Video
Pantry/Catering
✕ NO Pantry Car
✕ NO Catering
Loco/Rake Reversals
GDG/Gadag Junction (3);
RSA - Rake Sharing
56903/04 solapur dharwar pass
Rake/Coach Composition
UR-7,SLR-2.
Loco
GTL WDM 2A/3A
News    PNR    Forum    Time-Table    Availability    Fare Chart    Map    Arr/Dep History    Trips    Gallery    ΣChains    X/O    Timeline    
Travel Time: 9h 15m    40 halts    Distance: 359 km    Avg Speed: 38 km/hr
Type: Passenger
Zone: SWR/South Western
Departs @ 04:45 (Avg on time)
Platform# ???
SMTWTFS
Solapur/SUR 
Arrives @ 14:00 (Avg 1m late)
Platform# ???
SMTWTFS
Hubli Junction/UBL 

40 halts. 51 intermediate Stations between Solapur and Hubli Junction

Hide intermediate Stations  Show Old Time-Table

#TrkCodeStation NameX/OArrivesAvgDepartsAvgHaltPFDay#KmSpeedElevZoneAddress
1|==|SURSolapur (5)»  -04:45+0--10.038461mCRSolapur 413001, Maharashtra
2|==|TKWDTikekarwadi (2)  04:56+104:57+11m--16.960477mCRSolapur, Maharashtra
3!==|HGHotgi Junction (3)  05:05+205:07+22m1114.971473mCRHotgi 413215, Maharashtra
3.1|--|AHDAherwadi  05:13-05:13-  122.1 71469mSWRSholapur, Karnataka
3.2|--|SLGESulerjavalge (1)  05:18-05:18-  127.7 71453mSWRDist. Solapur, Maharashtra
4|--|TVLTadwal (1)X  05:24+805:25+81m1135.147455mSWRMundhewadi, Maharashtra
4.1|--|PDNRPadnur  05:35-05:35-  143.2 47428mSWRShegao to Alagi Rd, Karnataka
5|--|LHNLachyan (1)  05:42+805:43+81m1148.478455mSWRBijapur, Karnataka
6|--|IDRIndi Road (2)  05:51+1605:52+171m--158.875490mSWRDist. Bijapur, Karnataka
6.1|--|CHRGChorgi  05:58-05:58-  165.9 75492mSWRBijapur, Karnataka
7|--|NBLNimbal (1)  06:03+1306:05+122m1172.569522mSWRBijapur, Karnataka
7.1|--|KTKKyataneakeri Road  06:13-06:13-  181.4 69570mSWRBijapur, Karnataka
8|--|MNLMinchnal (1)X  06:21+2206:22+381m1191.034516mSWRBijapur, Karnataka
8.1|--|AYBAliyabad  06:45-06:45-  1103.7 34564mSWRBijapur, Karnataka
9|--|BJPVijapur (3)  06:55+807:00+85m21109.525597mSWRBijapur, Karnataka
10|--|IMRIbrahimpur  07:07 07:10-07:08 07:11-1m--1113.668629mSWRBijapur, Karnataka
11|--|HOHHonaganahalli  07:24-07:25-1m--1128.433590mSWRNational Highway 218, Karnataka
11.1|--|JMLJumnal (1)  07:29-07:29-  1130.6 33589mSWRGulbarga-Bijapur-Hubli Hwy, Karnataka
12|--|MVDMulvad (1)  07:37+3007:38+301m11135.157627mSWRBijapur, Karnataka
13|--|KGIHKalgurki Halt  07:46-07:47-1m--1142.745653mSWRKalgurkiH, Karnataka
14|--|KDGIKudgi  07:54-07:55-1m--1147.940608mSWRNH 13, Karnataka
15|--|BSRXBagevadi Road (2)  08:04+2408:05+251m--1153.956578mSWRBagevadi, Karnataka
16|--|ANGRAngadgeri Halt  08:09-08:10-1m--1157.638583mSWRAngadgeri, Karnataka
17|--|WDLWandal (1)X  08:17+2808:18+281m11162.048557mSWRDam Inspection Rd, Karnataka
18|--|BENLBenl  08:24-08:25-1m--1166.820535mSWRDam Inspection Rd, Karnataka
19|--|LMTAlmatti (2)  08:33 08:39+1708:35 08:40+182 1m--1171.640535mSWRBijapur, Karnataka
20|--|KSARKudala Sangam Road  08:41 08:47-08:42 08:48-1m--1176.242508mSWRNH 13, Karnataka
21|--|SIISitimani  08:47 08:55-08:48 08:56-1m--1181.225536mSWRDam Inspection Rd, Karnataka
22|--|JRKTJadrama Kunti (1)  08:54 09:09+808:55 09:10+81m11186.648536mSWRNational Highway 13, Karnataka
23|--|KLMKadlimatti  09:04 09:19-09:05 09:20-1m--1193.863574mSWRState Highway 20, Karnataka
24|--|MGLMugalolli H (1)  09:14 09:24+1509:15 09:25+151m11198.0131527mSWRMugalolli, Karnataka
25|--|BGKBagalkot (3)  09:28 09:29+2309:30+242 1m--1206.840541mSWRBagalkot, Karnataka
26|--|GEDGuledagudda Road (2)X  09:49+2009:50+201m--1219.643565mSWRSH 44, Karnataka
27|--|BDMBadami (2)  10:04 10:09+2110:05 10:10+201m--1233.2100573mSWRBagalkot, Karnataka
28|--|YGAYerra Goppa Halt  10:14-10:15-1m--1239.946573mSWRYerra Goppa, Karnataka
29|--|LKYLakhmapur (1)  10:21+2010:22+201m11244.543578mSWRMuttalageri, Karnataka
30|--|JAKJakanur  10:29-10:30-1m--1249.541546mSWRBadami Rd, Karnataka
31|--|HLARHole Alur (2)  10:34+2010:35+201m--1252.344543mSWRBadami Rd, Karnataka
32|--|SMKTSomankatti  10:44-10:45-1m--1258.846574mSWRState Highway 30, Karnataka
33|--|MLPMallapur (1)  11:04 10:59+1911:05 11:00+201m11269.639596mSWRState Highway 30, Karnataka
34|--|BLRBalganur (1)  11:14+1911:15+201m11278.761610mSWRGadag, Karnataka
35|--|HBLHombal (1)  11:24+2311:25+231m11287.926631mSWRBelavaniki, Karnataka
36|--|GDGGadag Junction (3)12:00 11:55+612:05+75 10m--1300.725655mSWRGadag GDG jn pnts. UBL/BAY/SUR, Karnataka
36.1|--|BKITBinkadakatti (2)  12:19-12:19-  1306.5 25651mSWRBinkadkatti, Karnataka
37|--|LKTHulkoti  12:33 12:34+1012:35+102 1m--1313.071654mSWRNational Highway 63, Karnataka
37.1|--|KNKPKondikoppa  12:40-12:40-  1319.3 71622mSWRAnnigeri Rural, Karnataka
38|--|NGRAnnigeri (2)X  12:37 12:44+1412:38 12:45+181m--1323.638634mSWRDist. Dharwad, Karnataka
38.1|--|NVDNavalgund Road (1)  12:58-12:58-  1331.8 38608mSWRState Highway 28, Karnataka
39|--|SVHESisvinhalli  13:04-13:05-1m--1335.741594mSWRState Highway 28, Karnataka
40|-=|HBSHebsur (3)XO  13:11+1113:12+111m--1339.876592mSWRrailway station road, Karnataka
41|==|KUGKusugal (2)O  13:19+1813:20+181m--1348.615637mSWRUnnamed Road, Karnataka
41.1|==|HBQHubli East Cabin  13:57-13:57-  1357.7 15636mSWRHubli, Karnataka
42|==|UBLHubli Junction (5)•  14:00+1---1358.5-640mSWRHubli - 580020, Karnataka
Scroll to Top
Scroll to Bottom